sensor_id;sensor_type;location;lat;lon;timestamp;P1;durP1;ratioP1;P2;durP2;ratioP2
35257;SDS011;21385;50.878;8.050;2022-08-01T00:01:04;6.93;;;6.28;;
35257;SDS011;21385;50.878;8.050;2022-08-01T00:03:29;7.45;;;6.63;;
35257;SDS011;21385;50.878;8.050;2022-08-01T00:05:55;6.85;;;6.25;;
35257;SDS011;21385;50.878;8.050;2022-08-01T00:08:21;7.75;;;6.70;;
35257;SDS011;21385;50.878;8.050;2022-08-01T00:10:47;8.52;;;6.88;;
35257;SDS011;21385;50.878;8.050;2022-08-01T00:13:12;7.35;;;6.78;;
35257;SDS011;21385;50.878;8.050;2022-08-01T00:15:38;9.90;;;8.02;;
35257;SDS011;21385;50.878;8.050;2022-08-01T00:18:03;8.30;;;7.55;;
35257;SDS011;21385;50.878;8.050;2022-08-01T00:20:29;8.57;;;7.65;;
35257;SDS011;21385;50.878;8.050;2022-08-01T00:22:54;8.73;;;7.82;;
35257;SDS011;21385;50.878;8.050;2022-08-01T00:25:20;9.75;;;8.23;;
35257;SDS011;21385;50.878;8.050;2022-08-01T00:27:46;9.63;;;8.63;;
35257;SDS011;21385;50.878;8.050;2022-08-01T00:30:11;9.85;;;9.07;;
35257;SDS011;21385;50.878;8.050;2022-08-01T00:32:37;9.45;;;8.55;;
35257;SDS011;21385;50.878;8.050;2022-08-01T00:35:03;10.15;;;9.25;;
35257;SDS011;21385;50.878;8.050;2022-08-01T00:37:28;9.32;;;8.35;;
35257;SDS011;21385;50.878;8.050;2022-08-01T00:39:54;10.68;;;9.65;;
35257;SDS011;21385;50.878;8.050;2022-08-01T00:42:19;11.00;;;10.10;;
35257;SDS011;21385;50.878;8.050;2022-08-01T00:44:45;11.32;;;10.23;;
35257;SDS011;21385;50.878;8.050;2022-08-01T00:47:11;12.25;;;11.15;;
35257;SDS011;21385;50.878;8.050;2022-08-01T00:49:36;13.70;;;12.60;;
35257;SDS011;21385;50.878;8.050;2022-08-01T00:52:02;13.20;;;11.93;;
35257;SDS011;21385;50.878;8.050;2022-08-01T00:54:29;14.35;;;13.05;;
35257;SDS011;21385;50.878;8.050;2022-08-01T00:56:55;15.30;;;13.70;;
35257;SDS011;21385;50.878;8.050;2022-08-01T00:59:22;14.88;;;13.48;;
35257;SDS011;21385;50.878;8.050;2022-08-01T01:01:49;15.73;;;14.23;;
35257;SDS011;21385;50.878;8.050;2022-08-01T01:04:15;14.82;;;13.25;;
35257;SDS011;21385;50.878;8.050;2022-08-01T01:14:56;14.55;;;13.13;;
35257;SDS011;21385;50.878;8.050;2022-08-01T01:17:32;14.45;;;13.13;;
35257;SDS011;21385;50.878;8.050;2022-08-01T01:20:02;14.80;;;13.40;;
35257;SDS011;21385;50.878;8.050;2022-08-01T01:28:08;14.50;;;12.68;;
35257;SDS011;21385;50.878;8.050;2022-08-01T01:30:40;13.88;;;12.57;;
35257;SDS011;21385;50.878;8.050;2022-08-01T01:33:09;14.68;;;13.13;;
35257;SDS011;21385;50.878;8.050;2022-08-01T01:35:39;16.20;;;14.43;;
35257;SDS011;21385;50.878;8.050;2022-08-01T01:38:23;18.08;;;13.98;;
35257;SDS011;21385;50.878;8.050;2022-08-01T01:40:54;15.93;;;14.45;;
35257;SDS011;21385;50.878;8.050;2022-08-01T01:43:22;17.13;;;13.43;;
35257;SDS011;21385;50.878;8.050;2022-08-01T01:45:49;16.67;;;13.45;;
35257;SDS011;21385;50.878;8.050;2022-08-01T01:48:16;13.63;;;12.43;;
35257;SDS011;21385;50.878;8.050;2022-08-01T01:50:45;13.75;;;12.55;;
35257;SDS011;21385;50.878;8.050;2022-08-01T01:53:12;14.60;;;13.05;;
35257;SDS011;21385;50.878;8.050;2022-08-01T01:55:40;13.75;;;12.40;;
35257;SDS011;21385;50.878;8.050;2022-08-01T01:58:08;14.75;;;13.25;;
35257;SDS011;21385;50.878;8.050;2022-08-01T02:00:38;13.32;;;12.18;;
35257;SDS011;21385;50.878;8.050;2022-08-01T02:03:05;12.65;;;11.45;;
35257;SDS011;21385;50.878;8.050;2022-08-01T02:05:33;12.15;;;11.05;;
35257;SDS011;21385;50.878;8.050;2022-08-01T02:08:00;13.02;;;11.73;;
35257;SDS011;21385;50.878;8.050;2022-08-01T02:10:28;11.73;;;10.73;;
35257;SDS011;21385;50.878;8.050;2022-08-01T02:13:00;11.73;;;10.57;;
35257;SDS011;21385;50.878;8.050;2022-08-01T02:15:29;11.52;;;10.27;;
35257;SDS011;21385;50.878;8.050;2022-08-01T02:17:56;10.88;;;9.80;;
35257;SDS011;21385;50.878;8.050;2022-08-01T02:20:22;12.52;;;11.23;;
35257;SDS011;21385;50.878;8.050;2022-08-01T02:22:53;11.75;;;10.75;;
35257;SDS011;21385;50.878;8.050;2022-08-01T02:25:24;11.40;;;10.40;;
35257;SDS011;21385;50.878;8.050;2022-08-01T02:30:30;11.85;;;10.45;;
35257;SDS011;21385;50.878;8.050;2022-08-01T02:33:00;11.10;;;10.10;;
35257;SDS011;21385;50.878;8.050;2022-08-01T02:35:31;11.93;;;10.65;;
35257;SDS011;21385;50.878;8.050;2022-08-01T02:38:01;11.32;;;10.05;;
35257;SDS011;21385;50.878;8.050;2022-08-01T02:40:29;11.73;;;10.52;;
35257;SDS011;21385;50.878;8.050;2022-08-01T02:42:57;12.93;;;10.90;;
35257;SDS011;21385;50.878;8.050;2022-08-01T02:45:26;12.05;;;11.02;;
35257;SDS011;21385;50.878;8.050;2022-08-01T02:48:01;13.32;;;10.70;;
35257;SDS011;21385;50.878;8.050;2022-08-01T02:50:34;12.07;;;11.07;;
35257;SDS011;21385;50.878;8.050;2022-08-01T02:53:04;12.02;;;10.88;;
35257;SDS011;21385;50.878;8.050;2022-08-01T02:55:32;12.77;;;11.60;;
35257;SDS011;21385;50.878;8.050;2022-08-01T02:58:00;13.30;;;11.00;;
35257;SDS011;21385;50.878;8.050;2022-08-01T03:00:28;11.88;;;10.88;;
35257;SDS011;21385;50.878;8.050;2022-08-01T03:02:56;13.02;;;11.40;;
35257;SDS011;21385;50.878;8.050;2022-08-01T03:05:23;13.27;;;11.98;;
35257;SDS011;21385;50.878;8.050;2022-08-01T03:07:50;12.57;;;11.60;;
35257;SDS011;21385;50.878;8.050;2022-08-01T03:10:17;15.00;;;12.27;;
35257;SDS011;21385;50.878;8.050;2022-08-01T03:12:44;13.00;;;11.52;;
35257;SDS011;21385;50.878;8.050;2022-08-01T03:15:11;13.50;;;12.20;;
35257;SDS011;21385;50.878;8.050;2022-08-01T03:17:38;13.40;;;12.23;;
35257;SDS011;21385;50.878;8.050;2022-08-01T03:20:08;13.77;;;12.57;;
35257;SDS011;21385;50.878;8.050;2022-08-01T03:22:37;14.82;;;11.93;;
35257;SDS011;21385;50.878;8.050;2022-08-01T03:25:05;13.65;;;12.38;;
35257;SDS011;21385;50.878;8.050;2022-08-01T03:27:32;13.95;;;12.65;;
35257;SDS011;21385;50.878;8.050;2022-08-01T03:30:00;14.55;;;13.30;;
35257;SDS011;21385;50.878;8.050;2022-08-01T03:32:28;15.75;;;14.25;;
35257;SDS011;21385;50.878;8.050;2022-08-01T03:34:55;14.93;;;13.52;;
35257;SDS011;21385;50.878;8.050;2022-08-01T03:37:26;15.25;;;13.85;;
35257;SDS011;21385;50.878;8.050;2022-08-01T03:42:28;19.92;;;14.68;;
35257;SDS011;21385;50.878;8.050;2022-08-01T03:45:02;15.20;;;13.82;;
35257;SDS011;21385;50.878;8.050;2022-08-01T03:47:37;15.55;;;14.07;;
35257;SDS011;21385;50.878;8.050;2022-08-01T03:50:08;15.88;;;14.45;;
35257;SDS011;21385;50.878;8.050;2022-08-01T03:52:37;16.52;;;14.85;;
35257;SDS011;21385;50.878;8.050;2022-08-01T03:55:05;16.17;;;14.57;;
35257;SDS011;21385;50.878;8.050;2022-08-01T03:57:32;16.75;;;15.20;;
35257;SDS011;21385;50.878;8.050;2022-08-01T03:59:59;16.85;;;15.07;;
35257;SDS011;21385;50.878;8.050;2022-08-01T04:02:28;17.08;;;15.63;;
35257;SDS011;21385;50.878;8.050;2022-08-01T04:04:54;17.35;;;15.65;;
35257;SDS011;21385;50.878;8.050;2022-08-01T04:07:25;18.58;;;16.58;;
35257;SDS011;21385;50.878;8.050;2022-08-01T04:09:52;18.25;;;16.48;;
35257;SDS011;21385;50.878;8.050;2022-08-01T04:12:18;20.20;;;17.02;;
35257;SDS011;21385;50.878;8.050;2022-08-01T04:14:43;19.10;;;17.08;;
35257;SDS011;21385;50.878;8.050;2022-08-01T04:17:10;18.45;;;16.60;;
35257;SDS011;21385;50.878;8.050;2022-08-01T04:19:35;18.35;;;16.45;;
35257;SDS011;21385;50.878;8.050;2022-08-01T04:22:01;19.13;;;17.35;;
35257;SDS011;21385;50.878;8.050;2022-08-01T04:24:27;19.63;;;17.70;;
35257;SDS011;21385;50.878;8.050;2022-08-01T04:26:55;18.42;;;16.60;;
35257;SDS011;21385;50.878;8.050;2022-08-01T04:29:24;20.20;;;18.00;;
35257;SDS011;21385;50.878;8.050;2022-08-01T04:31:52;19.52;;;17.65;;
35257;SDS011;21385;50.878;8.050;2022-08-01T04:34:20;22.25;;;17.45;;
35257;SDS011;21385;50.878;8.050;2022-08-01T04:36:49;20.27;;;17.08;;
35257;SDS011;21385;50.878;8.050;2022-08-01T04:39:17;19.10;;;17.10;;
35257;SDS011;21385;50.878;8.050;2022-08-01T04:41:44;18.33;;;16.60;;
35257;SDS011;21385;50.878;8.050;2022-08-01T04:44:12;18.73;;;16.80;;
35257;SDS011;21385;50.878;8.050;2022-08-01T04:46:38;23.83;;;17.70;;
35257;SDS011;21385;50.878;8.050;2022-08-01T04:49:05;19.63;;;17.70;;
35257;SDS011;21385;50.878;8.050;2022-08-01T04:51:33;19.10;;;17.30;;
35257;SDS011;21385;50.878;8.050;2022-08-01T04:53:59;20.77;;;17.38;;
35257;SDS011;21385;50.878;8.050;2022-08-01T04:56:26;21.35;;;17.05;;
35257;SDS011;21385;50.878;8.050;2022-08-01T04:58:51;21.40;;;17.45;;
35257;SDS011;21385;50.878;8.050;2022-08-01T05:01:37;19.02;;;17.05;;
35257;SDS011;21385;50.878;8.050;2022-08-01T05:04:03;18.08;;;16.23;;
35257;SDS011;21385;50.878;8.050;2022-08-01T05:06:28;18.10;;;15.52;;
35257;SDS011;21385;50.878;8.050;2022-08-01T05:08:54;19.27;;;16.92;;
35257;SDS011;21385;50.878;8.050;2022-08-01T05:11:20;19.75;;;17.80;;
35257;SDS011;21385;50.878;8.050;2022-08-01T05:13:47;20.17;;;17.77;;
35257;SDS011;21385;50.878;8.050;2022-08-01T05:16:12;20.50;;;16.70;;
35257;SDS011;21385;50.878;8.050;2022-08-01T05:18:38;17.92;;;16.10;;
35257;SDS011;21385;50.878;8.050;2022-08-01T05:21:04;18.70;;;16.70;;
35257;SDS011;21385;50.878;8.050;2022-08-01T05:23:29;20.33;;;18.20;;
35257;SDS011;21385;50.878;8.050;2022-08-01T05:25:55;20.45;;;16.98;;
35257;SDS011;21385;50.878;8.050;2022-08-01T05:28:20;19.45;;;17.60;;
35257;SDS011;21385;50.878;8.050;2022-08-01T05:30:46;20.67;;;18.63;;
35257;SDS011;21385;50.878;8.050;2022-08-01T05:33:11;23.88;;;18.58;;
35257;SDS011;21385;50.878;8.050;2022-08-01T05:35:37;21.90;;;18.15;;
35257;SDS011;21385;50.878;8.050;2022-08-01T05:38:03;20.20;;;18.10;;
35257;SDS011;21385;50.878;8.050;2022-08-01T05:40:28;22.08;;;18.05;;
35257;SDS011;21385;50.878;8.050;2022-08-01T05:42:54;20.85;;;18.70;;
35257;SDS011;21385;50.878;8.050;2022-08-01T05:45:20;21.50;;;17.92;;
35257;SDS011;21385;50.878;8.050;2022-08-01T05:47:45;19.60;;;17.52;;
35257;SDS011;21385;50.878;8.050;2022-08-01T05:50:11;25.10;;;18.67;;
35257;SDS011;21385;50.878;8.050;2022-08-01T05:52:37;20.27;;;18.33;;
35257;SDS011;21385;50.878;8.050;2022-08-01T05:55:03;20.00;;;17.58;;
35257;SDS011;21385;50.878;8.050;2022-08-01T05:57:29;21.60;;;18.23;;
35257;SDS011;21385;50.878;8.050;2022-08-01T05:59:55;23.55;;;18.20;;
35257;SDS011;21385;50.878;8.050;2022-08-01T06:02:20;20.70;;;18.55;;
35257;SDS011;21385;50.878;8.050;2022-08-01T06:04:46;23.73;;;17.85;;
35257;SDS011;21385;50.878;8.050;2022-08-01T06:07:12;18.60;;;16.60;;
35257;SDS011;21385;50.878;8.050;2022-08-01T06:09:37;20.45;;;17.50;;
35257;SDS011;21385;50.878;8.050;2022-08-01T06:12:03;25.30;;;18.85;;
35257;SDS011;21385;50.878;8.050;2022-08-01T06:14:29;20.33;;;18.10;;
35257;SDS011;21385;50.878;8.050;2022-08-01T06:16:55;21.20;;;18.00;;
35257;SDS011;21385;50.878;8.050;2022-08-01T06:19:20;21.38;;;19.02;;
35257;SDS011;21385;50.878;8.050;2022-08-01T06:21:46;19.98;;;17.83;;
35257;SDS011;21385;50.878;8.050;2022-08-01T06:24:11;20.00;;;18.00;;
35257;SDS011;21385;50.878;8.050;2022-08-01T06:26:37;21.02;;;18.77;;
35257;SDS011;21385;50.878;8.050;2022-08-01T06:29:02;20.13;;;18.13;;
35257;SDS011;21385;50.878;8.050;2022-08-01T06:31:28;20.67;;;18.45;;
35257;SDS011;21385;50.878;8.050;2022-08-01T06:33:54;24.73;;;17.77;;
35257;SDS011;21385;50.878;8.050;2022-08-01T06:36:20;18.67;;;16.85;;
35257;SDS011;21385;50.878;8.050;2022-08-01T06:38:46;19.58;;;17.30;;
35257;SDS011;21385;50.878;8.050;2022-08-01T06:41:11;18.88;;;16.90;;
35257;SDS011;21385;50.878;8.050;2022-08-01T06:43:37;19.70;;;17.70;;
35257;SDS011;21385;50.878;8.050;2022-08-01T06:46:02;19.25;;;17.35;;
35257;SDS011;21385;50.878;8.050;2022-08-01T06:48:28;19.55;;;17.45;;
35257;SDS011;21385;50.878;8.050;2022-08-01T06:50:54;22.83;;;17.25;;
35257;SDS011;21385;50.878;8.050;2022-08-01T06:53:33;18.80;;;16.95;;
35257;SDS011;21385;50.878;8.050;2022-08-01T06:55:59;7.68;;;6.93;;
35257;SDS011;21385;50.878;8.050;2022-08-01T06:58:25;16.52;;;14.80;;
35257;SDS011;21385;50.878;8.050;2022-08-01T07:00:51;14.95;;;13.48;;
35257;SDS011;21385;50.878;8.050;2022-08-01T07:03:16;12.73;;;11.50;;
35257;SDS011;21385;50.878;8.050;2022-08-01T07:05:42;15.13;;;11.57;;
35257;SDS011;21385;50.878;8.050;2022-08-01T07:08:07;15.07;;;13.63;;
35257;SDS011;21385;50.878;8.050;2022-08-01T07:10:33;14.13;;;12.52;;
35257;SDS011;21385;50.878;8.050;2022-08-01T07:12:59;19.13;;;14.02;;
35257;SDS011;21385;50.878;8.050;2022-08-01T07:15:24;14.02;;;12.73;;
35257;SDS011;21385;50.878;8.050;2022-08-01T07:17:51;16.50;;;12.57;;
35257;SDS011;21385;50.878;8.050;2022-08-01T07:20:17;15.25;;;13.82;;
35257;SDS011;21385;50.878;8.050;2022-08-01T07:22:43;14.85;;;13.18;;
35257;SDS011;21385;50.878;8.050;2022-08-01T07:25:08;19.58;;;14.23;;
35257;SDS011;21385;50.878;8.050;2022-08-01T07:27:34;14.18;;;12.98;;
35257;SDS011;21385;50.878;8.050;2022-08-01T07:30:01;12.27;;;11.05;;
35257;SDS011;21385;50.878;8.050;2022-08-01T07:32:27;13.90;;;12.57;;
35257;SDS011;21385;50.878;8.050;2022-08-01T07:34:54;15.15;;;13.65;;
35257;SDS011;21385;50.878;8.050;2022-08-01T07:37:20;16.20;;;14.60;;
35257;SDS011;21385;50.878;8.050;2022-08-01T07:39:45;12.40;;;10.82;;
35257;SDS011;21385;50.878;8.050;2022-08-01T07:42:11;13.45;;;12.27;;
35257;SDS011;21385;50.878;8.050;2022-08-01T07:44:37;11.95;;;10.82;;
35257;SDS011;21385;50.878;8.050;2022-08-01T07:47:03;14.00;;;12.55;;
35257;SDS011;21385;50.878;8.050;2022-08-01T07:49:29;12.10;;;10.90;;
35257;SDS011;21385;50.878;8.050;2022-08-01T07:51:55;13.32;;;12.13;;
35257;SDS011;21385;50.878;8.050;2022-08-01T07:54:21;13.05;;;11.82;;
35257;SDS011;21385;50.878;8.050;2022-08-01T07:56:48;12.30;;;11.30;;
35257;SDS011;21385;50.878;8.050;2022-08-01T07:59:15;12.43;;;11.20;;
35257;SDS011;21385;50.878;8.050;2022-08-01T08:01:40;11.40;;;10.40;;
35257;SDS011;21385;50.878;8.050;2022-08-01T08:04:06;10.57;;;9.57;;
35257;SDS011;21385;50.878;8.050;2022-08-01T08:06:32;10.48;;;9.48;;
35257;SDS011;21385;50.878;8.050;2022-08-01T08:08:57;10.40;;;9.40;;
35257;SDS011;21385;50.878;8.050;2022-08-01T08:11:23;10.93;;;9.88;;
35257;SDS011;21385;50.878;8.050;2022-08-01T08:13:49;10.65;;;8.57;;
35257;SDS011;21385;50.878;8.050;2022-08-01T08:16:14;8.90;;;8.10;;
35257;SDS011;21385;50.878;8.050;2022-08-01T08:18:40;9.68;;;8.70;;
35257;SDS011;21385;50.878;8.050;2022-08-01T08:21:05;8.13;;;7.32;;
35257;SDS011;21385;50.878;8.050;2022-08-01T08:23:31;10.18;;;8.95;;
35257;SDS011;21385;50.878;8.050;2022-08-01T08:26:15;8.77;;;7.82;;
35257;SDS011;21385;50.878;8.050;2022-08-01T08:28:40;9.45;;;7.70;;
35257;SDS011;21385;50.878;8.050;2022-08-01T08:31:07;7.55;;;6.95;;
35257;SDS011;21385;50.878;8.050;2022-08-01T08:33:33;7.75;;;6.88;;
35257;SDS011;21385;50.878;8.050;2022-08-01T08:35:58;7.25;;;6.32;;
35257;SDS011;21385;50.878;8.050;2022-08-01T08:38:24;6.88;;;6.30;;
35257;SDS011;21385;50.878;8.050;2022-08-01T08:40:52;7.47;;;6.78;;
35257;SDS011;21385;50.878;8.050;2022-08-01T08:43:17;8.15;;;7.40;;
35257;SDS011;21385;50.878;8.050;2022-08-01T08:45:44;8.40;;;7.50;;
35257;SDS011;21385;50.878;8.050;2022-08-01T08:48:11;8.52;;;7.82;;
35257;SDS011;21385;50.878;8.050;2022-08-01T08:50:38;8.85;;;7.95;;
35257;SDS011;21385;50.878;8.050;2022-08-01T08:53:04;7.35;;;6.68;;
35257;SDS011;21385;50.878;8.050;2022-08-01T08:55:30;8.48;;;7.82;;
35257;SDS011;21385;50.878;8.050;2022-08-01T08:57:56;11.32;;;7.20;;
35257;SDS011;21385;50.878;8.050;2022-08-01T09:00:22;6.88;;;6.22;;
35257;SDS011;21385;50.878;8.050;2022-08-01T09:02:48;9.15;;;7.65;;
35257;SDS011;21385;50.878;8.050;2022-08-01T09:05:14;7.20;;;6.38;;
35257;SDS011;21385;50.878;8.050;2022-08-01T09:07:40;7.88;;;7.15;;
35257;SDS011;21385;50.878;8.050;2022-08-01T09:10:06;6.88;;;6.22;;
35257;SDS011;21385;50.878;8.050;2022-08-01T09:12:32;6.47;;;5.93;;
35257;SDS011;21385;50.878;8.050;2022-08-01T09:14:58;5.13;;;4.68;;
35257;SDS011;21385;50.878;8.050;2022-08-01T09:17:23;5.55;;;5.15;;
35257;SDS011;21385;50.878;8.050;2022-08-01T09:19:53;5.53;;;4.55;;
35257;SDS011;21385;50.878;8.050;2022-08-01T09:22:21;5.00;;;4.43;;
35257;SDS011;21385;50.878;8.050;2022-08-01T09:25:07;6.22;;;5.28;;
35257;SDS011;21385;50.878;8.050;2022-08-01T09:27:36;5.90;;;4.70;;
35257;SDS011;21385;50.878;8.050;2022-08-01T09:30:12;4.97;;;4.57;;
35257;SDS011;21385;50.878;8.050;2022-08-01T09:32:53;4.28;;;3.70;;
35257;SDS011;21385;50.878;8.050;2022-08-01T09:35:23;4.43;;;4.03;;
35257;SDS011;21385;50.878;8.050;2022-08-01T09:40:48;4.30;;;3.97;;
35257;SDS011;21385;50.878;8.050;2022-08-01T09:43:15;3.58;;;2.92;;
35257;SDS011;21385;50.878;8.050;2022-08-01T09:45:42;3.70;;;3.38;;
35257;SDS011;21385;50.878;8.050;2022-08-01T09:48:08;3.35;;;3.05;;
35257;SDS011;21385;50.878;8.050;2022-08-01T09:50:39;3.92;;;3.00;;
35257;SDS011;21385;50.878;8.050;2022-08-01T09:53:06;3.58;;;2.60;;
35257;SDS011;21385;50.878;8.050;2022-08-01T09:55:32;3.15;;;2.90;;
35257;SDS011;21385;50.878;8.050;2022-08-01T09:57:58;3.03;;;2.58;;
35257;SDS011;21385;50.878;8.050;2022-08-01T10:00:25;4.15;;;2.97;;
35257;SDS011;21385;50.878;8.050;2022-08-01T10:02:52;2.83;;;2.55;;
35257;SDS011;21385;50.878;8.050;2022-08-01T10:05:17;4.50;;;2.50;;
35257;SDS011;21385;50.878;8.050;2022-08-01T10:07:55;2.40;;;2.20;;
35257;SDS011;21385;50.878;8.050;2022-08-01T10:10:26;2.83;;;2.20;;
35257;SDS011;21385;50.878;8.050;2022-08-01T10:12:52;2.50;;;2.30;;
35257;SDS011;21385;50.878;8.050;2022-08-01T10:15:19;2.65;;;2.45;;
35257;SDS011;21385;50.878;8.050;2022-08-01T10:17:54;2.47;;;2.28;;
35257;SDS011;21385;50.878;8.050;2022-08-01T10:20:25;2.95;;;2.70;;
35257;SDS011;21385;50.878;8.050;2022-08-01T10:22:57;2.63;;;2.42;;
35257;SDS011;21385;50.878;8.050;2022-08-01T10:25:24;2.47;;;2.28;;
35257;SDS011;21385;50.878;8.050;2022-08-01T10:27:53;6.30;;;2.70;;
35257;SDS011;21385;50.878;8.050;2022-08-01T10:30:22;2.65;;;2.45;;
35257;SDS011;21385;50.878;8.050;2022-08-01T10:32:48;4.00;;;2.70;;
35257;SDS011;21385;50.878;8.050;2022-08-01T10:35:17;2.65;;;2.35;;
35257;SDS011;21385;50.878;8.050;2022-08-01T10:37:44;2.60;;;2.40;;
35257;SDS011;21385;50.878;8.050;2022-08-01T10:40:14;2.17;;;1.92;;
35257;SDS011;21385;50.878;8.050;2022-08-01T10:42:44;2.45;;;1.90;;
35257;SDS011;21385;50.878;8.050;2022-08-01T10:45:11;1.80;;;1.70;;
35257;SDS011;21385;50.878;8.050;2022-08-01T10:48:22;2.17;;;1.98;;
35257;SDS011;21385;50.878;8.050;2022-08-01T10:50:37;1.88;;;1.77;;
35257;SDS011;21385;50.878;8.050;2022-08-01T10:55:57;1.50;;;1.40;;
35257;SDS011;21385;50.878;8.050;2022-08-01T10:58:35;2.63;;;1.90;;
35257;SDS011;21385;50.878;8.050;2022-08-01T11:06:24;2.75;;;1.60;;
35257;SDS011;21385;50.878;8.050;2022-08-01T11:08:53;1.92;;;1.60;;
35257;SDS011;21385;50.878;8.050;2022-08-01T11:11:20;1.60;;;1.50;;
35257;SDS011;21385;50.878;8.050;2022-08-01T11:13:59;2.28;;;1.90;;
35257;SDS011;21385;50.878;8.050;2022-08-01T11:16:37;1.92;;;1.77;;
35257;SDS011;21385;50.878;8.050;2022-08-01T11:19:04;3.45;;;1.83;;
35257;SDS011;21385;50.878;8.050;2022-08-01T11:27:18;1.70;;;1.27;;
35257;SDS011;21385;50.878;8.050;2022-08-01T11:32:49;5.15;;;1.90;;
35257;SDS011;21385;50.878;8.050;2022-08-01T11:35:16;1.73;;;1.63;;
35257;SDS011;21385;50.878;8.050;2022-08-01T11:37:45;1.48;;;1.38;;
35257;SDS011;21385;50.878;8.050;2022-08-01T11:42:43;2.80;;;1.58;;
35257;SDS011;21385;50.878;8.050;2022-08-01T11:45:08;4.45;;;1.35;;
35257;SDS011;21385;50.878;8.050;2022-08-01T11:53:05;2.63;;;1.33;;
35257;SDS011;21385;50.878;8.050;2022-08-01T11:55:32;1.95;;;1.23;;
35257;SDS011;21385;50.878;8.050;2022-08-01T11:58:02;4.47;;;1.60;;
35257;SDS011;21385;50.878;8.050;2022-08-01T12:00:32;1.40;;;1.27;;
35257;SDS011;21385;50.878;8.050;2022-08-01T12:05:30;2.67;;;1.35;;
35257;SDS011;21385;50.878;8.050;2022-08-01T12:07:58;1.42;;;1.30;;
35257;SDS011;21385;50.878;8.050;2022-08-01T12:10:26;1.58;;;1.20;;
35257;SDS011;21385;50.878;8.050;2022-08-01T12:13:00;1.33;;;1.10;;
35257;SDS011;21385;50.878;8.050;2022-08-01T12:15:34;2.45;;;1.40;;
35257;SDS011;21385;50.878;8.050;2022-08-01T12:18:02;1.27;;;1.17;;
35257;SDS011;21385;50.878;8.050;2022-08-01T12:20:34;1.30;;;1.20;;
35257;SDS011;21385;50.878;8.050;2022-08-01T12:23:08;1.73;;;1.17;;
35257;SDS011;21385;50.878;8.050;2022-08-01T12:25:38;1.27;;;1.08;;
35257;SDS011;21385;50.878;8.050;2022-08-01T12:28:06;1.08;;;0.98;;
35257;SDS011;21385;50.878;8.050;2022-08-01T12:30:33;1.33;;;1.20;;
35257;SDS011;21385;50.878;8.050;2022-08-01T12:33:00;1.27;;;1.17;;
35257;SDS011;21385;50.878;8.050;2022-08-01T12:35:29;1.30;;;1.10;;
35257;SDS011;21385;50.878;8.050;2022-08-01T12:37:55;2.53;;;1.30;;
35257;SDS011;21385;50.878;8.050;2022-08-01T12:40:36;2.40;;;1.00;;
35257;SDS011;21385;50.878;8.050;2022-08-01T12:43:07;2.88;;;1.10;;
35257;SDS011;21385;50.878;8.050;2022-08-01T12:45:39;1.95;;;1.40;;
35257;SDS011;21385;50.878;8.050;2022-08-01T12:48:09;2.58;;;1.10;;
35257;SDS011;21385;50.878;8.050;2022-08-01T12:50:36;1.33;;;1.10;;
35257;SDS011;21385;50.878;8.050;2022-08-01T12:53:04;4.45;;;1.10;;
35257;SDS011;21385;50.878;8.050;2022-08-01T12:55:30;1.92;;;1.30;;
35257;SDS011;21385;50.878;8.050;2022-08-01T12:58:07;2.53;;;1.27;;
35257;SDS011;21385;50.878;8.050;2022-08-01T13:00:35;2.13;;;1.30;;
35257;SDS011;21385;50.878;8.050;2022-08-01T13:03:02;1.48;;;1.30;;
35257;SDS011;21385;50.878;8.050;2022-08-01T13:05:42;1.13;;;1.05;;
35257;SDS011;21385;50.878;8.050;2022-08-01T13:08:22;1.45;;;1.13;;
35257;SDS011;21385;50.878;8.050;2022-08-01T13:10:49;1.98;;;1.35;;
35257;SDS011;21385;50.878;8.050;2022-08-01T13:13:16;1.70;;;1.50;;
35257;SDS011;21385;50.878;8.050;2022-08-01T13:15:44;1.58;;;1.33;;
35257;SDS011;21385;50.878;8.050;2022-08-01T13:18:29;1.58;;;1.42;;
35257;SDS011;21385;50.878;8.050;2022-08-01T13:24:11;1.50;;;1.40;;
35257;SDS011;21385;50.878;8.050;2022-08-01T13:29:03;1.30;;;1.20;;
35257;SDS011;21385;50.878;8.050;2022-08-01T13:31:32;1.20;;;1.10;;
35257;SDS011;21385;50.878;8.050;2022-08-01T13:33:59;2.08;;;1.08;;
35257;SDS011;21385;50.878;8.050;2022-08-01T13:36:24;1.33;;;1.23;;
35257;SDS011;21385;50.878;8.050;2022-08-01T13:38:53;1.80;;;1.40;;
35257;SDS011;21385;50.878;8.050;2022-08-01T13:41:38;1.65;;;1.50;;
35257;SDS011;21385;50.878;8.050;2022-08-01T13:44:05;1.30;;;1.20;;
35257;SDS011;21385;50.878;8.050;2022-08-01T13:46:31;1.30;;;1.20;;
35257;SDS011;21385;50.878;8.050;2022-08-01T13:48:56;1.40;;;1.30;;
35257;SDS011;21385;50.878;8.050;2022-08-01T13:51:25;1.48;;;1.30;;
35257;SDS011;21385;50.878;8.050;2022-08-01T13:53:51;1.45;;;1.20;;
35257;SDS011;21385;50.878;8.050;2022-08-01T13:56:17;2.17;;;1.30;;
35257;SDS011;21385;50.878;8.050;2022-08-01T13:58:43;2.33;;;1.48;;
35257;SDS011;21385;50.878;8.050;2022-08-01T14:01:09;3.05;;;1.33;;
35257;SDS011;21385;50.878;8.050;2022-08-01T14:03:34;1.75;;;1.30;;
35257;SDS011;21385;50.878;8.050;2022-08-01T14:06:00;1.40;;;1.17;;
35257;SDS011;21385;50.878;8.050;2022-08-01T14:08:26;2.90;;;1.02;;
35257;SDS011;21385;50.878;8.050;2022-08-01T14:10:52;1.52;;;1.40;;
35257;SDS011;21385;50.878;8.050;2022-08-01T14:13:18;1.70;;;1.60;;
35257;SDS011;21385;50.878;8.050;2022-08-01T14:15:44;1.65;;;1.38;;
35257;SDS011;21385;50.878;8.050;2022-08-01T14:18:10;2.05;;;1.40;;
35257;SDS011;21385;50.878;8.050;2022-08-01T14:20:36;1.80;;;1.20;;
35257;SDS011;21385;50.878;8.050;2022-08-01T14:23:02;1.30;;;1.20;;
35257;SDS011;21385;50.878;8.050;2022-08-01T14:25:28;1.58;;;1.17;;
35257;SDS011;21385;50.878;8.050;2022-08-01T14:27:53;1.40;;;1.30;;
35257;SDS011;21385;50.878;8.050;2022-08-01T14:30:19;1.35;;;1.25;;
35257;SDS011;21385;50.878;8.050;2022-08-01T14:32:45;1.27;;;1.17;;
35257;SDS011;21385;50.878;8.050;2022-08-01T14:35:11;1.70;;;1.48;;
35257;SDS011;21385;50.878;8.050;2022-08-01T14:37:36;1.65;;;1.30;;
35257;SDS011;21385;50.878;8.050;2022-08-01T14:40:02;1.65;;;1.30;;
35257;SDS011;21385;50.878;8.050;2022-08-01T14:42:32;1.90;;;1.10;;
35257;SDS011;21385;50.878;8.050;2022-08-01T14:44:58;2.25;;;1.20;;
35257;SDS011;21385;50.878;8.050;2022-08-01T14:47:24;3.80;;;1.40;;
35257;SDS011;21385;50.878;8.050;2022-08-01T14:49:50;1.30;;;1.20;;
35257;SDS011;21385;50.878;8.050;2022-08-01T14:52:16;1.30;;;1.20;;
35257;SDS011;21385;50.878;8.050;2022-08-01T14:54:42;1.40;;;1.23;;
35257;SDS011;21385;50.878;8.050;2022-08-01T14:57:07;1.50;;;1.30;;
35257;SDS011;21385;50.878;8.050;2022-08-01T14:59:33;1.40;;;1.30;;
35257;SDS011;21385;50.878;8.050;2022-08-01T15:01:59;2.38;;;1.30;;
35257;SDS011;21385;50.878;8.050;2022-08-01T15:04:25;1.55;;;1.45;;
35257;SDS011;21385;50.878;8.050;2022-08-01T15:06:51;2.28;;;1.30;;
35257;SDS011;21385;50.878;8.050;2022-08-01T15:09:16;2.22;;;1.20;;
35257;SDS011;21385;50.878;8.050;2022-08-01T15:11:42;1.67;;;1.40;;
35257;SDS011;21385;50.878;8.050;2022-08-01T15:14:07;2.60;;;1.30;;
35257;SDS011;21385;50.878;8.050;2022-08-01T15:16:52;1.88;;;1.20;;
35257;SDS011;21385;50.878;8.050;2022-08-01T15:19:17;1.20;;;1.10;;
35257;SDS011;21385;50.878;8.050;2022-08-01T15:21:43;1.65;;;1.23;;
35257;SDS011;21385;50.878;8.050;2022-08-01T15:24:08;2.20;;;1.30;;
35257;SDS011;21385;50.878;8.050;2022-08-01T15:26:34;1.98;;;1.40;;
35257;SDS011;21385;50.878;8.050;2022-08-01T15:29:00;1.50;;;1.40;;
35257;SDS011;21385;50.878;8.050;2022-08-01T15:31:26;1.30;;;1.20;;
35257;SDS011;21385;50.878;8.050;2022-08-01T15:33:51;3.67;;;1.02;;